createdAt,value
2023-03-12T00:00:14.145Z,71.94
2023-03-12T00:02:41.844Z,71.67
2023-03-12T00:05:10.259Z,72.06
2023-03-12T00:07:39.458Z,72.66
2023-03-12T00:10:08.014Z,72.02
2023-03-12T00:12:35.852Z,72.30
2023-03-12T00:15:03.568Z,72.05
2023-03-12T00:17:31.501Z,72.03
2023-03-12T00:19:59.363Z,71.12
2023-03-12T00:22:27.067Z,71.52
2023-03-12T00:24:57.500Z,72.48
2023-03-12T00:27:26.022Z,71.94
2023-03-12T00:29:53.680Z,71.88
2023-03-12T00:32:22.094Z,71.96
2023-03-12T00:34:51.871Z,72.51
2023-03-12T00:37:19.624Z,72.81
2023-03-12T00:39:47.281Z,71.40
2023-03-12T00:42:16.290Z,71.25
2023-03-12T00:44:44.488Z,71.40
2023-03-12T00:47:12.402Z,72.04
2023-03-12T00:49:40.304Z,71.88
2023-03-12T00:52:08.177Z,72.84
2023-03-12T00:54:35.873Z,72.41
2023-03-12T00:57:03.591Z,72.84
2023-03-12T00:59:32.990Z,72.55
2023-03-12T01:02:00.655Z,71.91
2023-03-12T01:04:28.451Z,73.67
2023-03-12T01:06:56.484Z,73.47
2023-03-12T01:09:24.124Z,73.78
2023-03-12T01:11:51.893Z,74.25
2023-03-12T01:14:19.564Z,76.03
2023-03-12T01:16:50.323Z,78.78
2023-03-12T01:19:19.681Z,80.79
2023-03-12T01:21:47.376Z,80.22
2023-03-12T01:24:15.052Z,81.32
2023-03-12T01:26:42.743Z,81.64
2023-03-12T01:29:10.428Z,82.17
2023-03-12T01:31:38.123Z,82.08
2023-03-12T01:34:07.162Z,82.30
2023-03-12T01:36:34.831Z,82.75
2023-03-12T01:39:02.613Z,82.82
2023-03-12T01:41:33.042Z,83.04
2023-03-12T01:44:02.763Z,82.56
2023-03-12T01:46:33.018Z,83.14
2023-03-12T01:49:05.340Z,83.23
2023-03-12T01:51:36.916Z,84.15
2023-03-12T01:54:09.158Z,84.95
2023-03-12T01:56:37.552Z,86.35
2023-03-12T01:59:09.060Z,86.25
2023-03-12T02:01:36.719Z,87.17
2023-03-12T02:04:04.614Z,86.53
2023-03-12T02:06:38.519Z,86.60
2023-03-12T02:09:07.303Z,86.55
2023-03-12T02:11:35.035Z,86.63
2023-03-12T02:14:03.024Z,86.74
2023-03-12T02:16:31.401Z,87.02
2023-03-12T02:19:01.844Z,87.15
2023-03-12T02:21:35.224Z,88.04
2023-03-12T02:24:09.564Z,87.53
2023-03-12T02:26:39.498Z,88.69
2023-03-12T02:29:08.490Z,88.37
2023-03-12T02:31:39.108Z,89.14
2023-03-12T02:34:07.438Z,89.01
2023-03-12T02:36:35.081Z,88.88
2023-03-12T02:39:02.850Z,89.43
2023-03-12T02:41:32.808Z,88.99
2023-03-12T02:44:06.470Z,88.90
2023-03-12T02:46:36.431Z,88.73
2023-03-12T02:49:04.440Z,89.53
2023-03-12T02:51:32.315Z,89.77
2023-03-12T02:53:59.908Z,89.56
2023-03-12T02:56:29.322Z,89.29
2023-03-12T02:58:57.055Z,90.10
2023-03-12T03:01:26.163Z,89.86
2023-03-12T03:03:54.550Z,90.26
2023-03-12T03:06:22.399Z,90.30
2023-03-12T03:08:50.015Z,90.30
2023-03-12T03:11:17.670Z,90.77
2023-03-12T03:13:45.281Z,91.04
2023-03-12T03:16:13.570Z,90.50
2023-03-12T03:18:42.703Z,90.68
2023-03-12T03:21:16.352Z,90.39
2023-03-12T03:23:44.665Z,89.99
2023-03-12T03:26:12.946Z,90.20
2023-03-12T03:28:40.684Z,90.99
2023-03-12T03:31:08.442Z,90.98
2023-03-12T03:33:37.975Z,92.02
2023-03-12T03:36:08.521Z,91.92
2023-03-12T03:38:36.395Z,93.30
2023-03-12T03:41:04.430Z,93.48
2023-03-12T03:43:32.152Z,94.14
2023-03-12T03:46:00.918Z,95.21
2023-03-12T03:48:28.973Z,95.29
2023-03-12T03:51:01.024Z,95.21
2023-03-12T03:53:29.875Z,95.23
2023-03-12T03:55:57.496Z,94.68
2023-03-12T03:58:25.182Z,94.54
2023-03-12T04:00:52.784Z,94.66
2023-03-12T04:03:20.441Z,95.16
2023-03-12T04:05:48.180Z,95.06
2023-03-12T04:08:15.898Z,95.92
2023-03-12T04:10:44.960Z,95.93
2023-03-12T04:13:12.566Z,96.89
2023-03-12T04:15:40.188Z,97.29
2023-03-12T04:18:08.009Z,97.25
2023-03-12T04:20:35.640Z,97.66
2023-03-12T04:23:03.273Z,97.42
2023-03-12T04:25:31.589Z,97.34
2023-03-12T04:28:01.269Z,97.05
2023-03-12T04:30:28.998Z,97.07
2023-03-12T04:32:56.809Z,97.01
2023-03-12T04:35:25.027Z,96.81
2023-03-12T04:37:52.709Z,97.31
2023-03-12T04:40:20.475Z,97.20
2023-03-12T04:42:48.244Z,97.47
2023-03-12T04:45:17.377Z,97.80
2023-03-12T04:47:45.091Z,97.67
2023-03-12T04:50:13.719Z,98.78
2023-03-12T04:52:41.347Z,99.09
2023-03-12T04:55:09.929Z,99.57
2023-03-12T04:57:37.571Z,99.85
2023-03-12T05:00:11.049Z,100.00
2023-03-12T05:02:40.363Z,100.00
2023-03-12T05:05:09.181Z,100.00
2023-03-12T05:07:36.829Z,100.00
2023-03-12T05:10:05.163Z,100.00
2023-03-12T05:12:32.812Z,100.00
2023-03-12T05:15:00.437Z,100.00
2023-03-12T05:17:28.123Z,100.00
2023-03-12T05:19:57.180Z,100.00
2023-03-12T05:22:24.851Z,100.00
2023-03-12T05:24:52.487Z,100.00
2023-03-12T05:27:20.493Z,100.00
2023-03-12T05:29:48.244Z,100.00
2023-03-12T05:32:15.904Z,100.00
2023-03-12T05:34:43.645Z,100.00
2023-03-12T05:37:12.595Z,100.00
2023-03-12T05:39:46.609Z,100.00
2023-03-12T05:42:14.920Z,100.00
2023-03-12T05:44:42.710Z,100.00
2023-03-12T05:47:10.594Z,100.00
2023-03-12T05:49:38.193Z,100.00
2023-03-12T05:52:06.393Z,100.00
2023-03-12T05:54:35.373Z,100.00
2023-03-12T05:57:03.446Z,100.00
2023-03-12T05:59:31.201Z,100.00
2023-03-12T06:01:58.897Z,100.00
2023-03-12T06:04:26.524Z,100.00
2023-03-12T06:06:54.182Z,100.00
2023-03-12T06:09:21.817Z,100.00
2023-03-12T06:11:50.816Z,100.00
2023-03-12T06:14:18.441Z,100.00
2023-03-12T06:16:46.164Z,100.00
2023-03-12T06:19:14.839Z,100.00
2023-03-12T06:21:44.174Z,100.00
2023-03-12T06:24:11.806Z,100.00
2023-03-12T06:26:40.491Z,100.00
2023-03-12T06:29:09.493Z,100.00
2023-03-12T06:31:38.848Z,100.00
2023-03-12T06:34:06.866Z,100.00
2023-03-12T06:36:34.486Z,100.00
2023-03-12T06:39:02.113Z,100.00
2023-03-12T06:41:30.305Z,100.00
2023-03-12T06:43:59.082Z,100.00
2023-03-12T06:46:28.023Z,100.00
2023-03-12T06:48:55.778Z,100.00
2023-03-12T06:51:23.370Z,100.00
2023-03-12T06:53:51.009Z,100.00
2023-03-12T06:56:18.805Z,100.00
2023-03-12T06:58:46.420Z,100.00
2023-03-12T07:01:14.038Z,100.00
2023-03-12T07:03:43.012Z,100.00
2023-03-12T07:06:14.934Z,100.00
2023-03-12T07:08:43.007Z,100.00
2023-03-12T07:11:11.391Z,100.00
2023-03-12T07:13:39.203Z,100.00
2023-03-12T07:16:07.927Z,100.00
2023-03-12T07:18:35.638Z,100.00
2023-03-12T07:21:05.060Z,100.00
2023-03-12T07:23:32.691Z,100.00
2023-03-12T07:26:00.429Z,100.00
2023-03-12T07:28:28.030Z,100.00
2023-03-12T07:31:01.492Z,100.00
2023-03-12T07:33:29.397Z,100.00
2023-03-12T07:35:57.226Z,100.00
2023-03-12T07:38:26.594Z,100.00
2023-03-12T07:40:55.279Z,100.00
2023-03-12T07:43:23.146Z,100.00
2023-03-12T07:45:50.936Z,100.00
2023-03-12T07:48:19.829Z,100.00
2023-03-12T07:50:47.706Z,100.00
2023-03-12T07:53:15.487Z,100.00
2023-03-12T07:55:45.026Z,100.00
2023-03-12T07:58:13.851Z,100.00
2023-03-12T08:00:41.630Z,100.00
2023-03-12T08:03:09.505Z,100.00
2023-03-12T08:05:37.392Z,100.00
2023-03-12T08:08:05.089Z,100.00
2023-03-12T08:10:32.770Z,100.00
2023-03-12T08:13:01.953Z,100.00
2023-03-12T08:15:29.678Z,100.00
2023-03-12T08:17:57.361Z,100.00
2023-03-12T08:20:25.056Z,100.00
2023-03-12T08:22:52.929Z,100.00
2023-03-12T08:25:21.178Z,100.00
2023-03-12T08:27:48.833Z,100.00
2023-03-12T08:30:18.498Z,100.00
2023-03-12T08:32:46.139Z,100.00
2023-03-12T08:35:13.763Z,100.00
2023-03-12T08:37:41.456Z,100.00
2023-03-12T08:40:13.254Z,100.00
2023-03-12T08:42:41.343Z,100.00
2023-03-12T08:45:10.193Z,100.00
2023-03-12T08:47:41.614Z,100.00
2023-03-12T08:50:10.813Z,100.00
2023-03-12T08:52:38.437Z,100.00
2023-03-12T08:55:06.952Z,100.00
2023-03-12T08:57:34.592Z,100.00
2023-03-12T09:00:02.232Z,100.00
2023-03-12T09:02:29.835Z,100.00
2023-03-12T09:04:58.778Z,100.00
2023-03-12T09:07:26.383Z,100.00
2023-03-12T09:09:55.523Z,100.00
2023-03-12T09:12:23.504Z,100.00
2023-03-12T09:15:03.056Z,100.00
2023-03-12T09:17:31.688Z,100.00
2023-03-12T09:20:01.106Z,100.00
2023-03-12T09:22:30.309Z,100.00
2023-03-12T09:24:58.007Z,100.00
2023-03-12T09:27:25.857Z,100.00
2023-03-12T09:30:00.645Z,100.00
2023-03-12T09:32:28.970Z,100.00
2023-03-12T09:34:56.734Z,100.00
2023-03-12T09:37:25.899Z,100.00
2023-03-12T09:39:54.273Z,100.00
2023-03-12T09:42:25.235Z,100.00
2023-03-12T09:44:53.539Z,100.00
2023-03-12T09:47:27.471Z,100.00
2023-03-12T09:49:57.172Z,100.00
2023-03-12T09:52:29.623Z,100.00
2023-03-12T09:55:01.371Z,100.00
2023-03-12T09:57:29.966Z,100.00
2023-03-12T09:59:57.936Z,100.00
2023-03-12T10:02:46.642Z,100.00
2023-03-12T10:05:18.796Z,100.00
2023-03-12T10:07:48.913Z,100.00
2023-03-12T10:10:47.082Z,100.00
2023-03-12T10:13:20.963Z,100.00
2023-03-12T10:15:58.007Z,100.00
2023-03-12T10:18:34.435Z,100.00
2023-03-12T10:21:11.569Z,100.00
2023-03-12T10:23:49.968Z,100.00
2023-03-12T10:26:20.275Z,100.00
2023-03-12T10:28:50.635Z,100.00
2023-03-12T10:31:22.087Z,100.00
2023-03-12T10:33:53.652Z,100.00
2023-03-12T10:36:23.147Z,100.00
2023-03-12T10:38:52.358Z,100.00
2023-03-12T10:41:22.577Z,100.00
2023-03-12T10:43:50.297Z,100.00
2023-03-12T10:46:36.711Z,100.00
2023-03-12T10:49:30.451Z,100.00
2023-03-12T10:52:00.493Z,100.00
2023-03-12T10:54:35.050Z,100.00
2023-03-12T10:57:02.733Z,100.00
2023-03-12T10:59:32.393Z,100.00
2023-03-12T11:02:00.973Z,100.00
2023-03-12T11:04:30.751Z,100.00
2023-03-12T11:07:20.380Z,100.00
2023-03-12T11:10:18.992Z,100.00
2023-03-12T11:13:05.697Z,100.00
2023-03-12T11:15:40.545Z,100.00
2023-03-12T11:18:27.361Z,100.00
2023-03-12T11:20:57.490Z,100.00
2023-03-12T11:23:29.241Z,100.00
2023-03-12T11:26:00.752Z,100.00
2023-03-12T11:28:37.421Z,100.00
2023-03-12T11:31:07.146Z,100.00
2023-03-12T11:33:35.190Z,100.00
2023-03-12T11:36:10.231Z,100.00
2023-03-12T11:38:41.369Z,100.00
2023-03-12T11:41:22.384Z,100.00
2023-03-12T11:44:01.632Z,100.00
2023-03-12T11:46:36.760Z,100.00
2023-03-12T11:49:13.150Z,100.00
2023-03-12T11:51:47.584Z,100.00
2023-03-12T11:54:26.955Z,100.00
2023-03-12T11:56:57.375Z,100.00
2023-03-12T11:59:39.601Z,100.00
2023-03-12T12:02:17.587Z,100.00
2023-03-12T12:05:06.986Z,100.00
2023-03-12T12:07:44.719Z,100.00
2023-03-12T12:10:21.759Z,100.00
2023-03-12T12:12:57.059Z,100.00
2023-03-12T12:15:32.724Z,100.00
2023-03-12T12:18:12.383Z,100.00
2023-03-12T12:20:45.225Z,100.00
2023-03-12T12:23:19.951Z,100.00
2023-03-12T12:25:56.689Z,100.00
2023-03-12T12:28:57.209Z,100.00
2023-03-12T12:31:33.423Z,100.00
2023-03-12T12:34:24.345Z,100.00
2023-03-12T12:36:55.949Z,100.00
2023-03-12T12:39:31.098Z,100.00
2023-03-12T12:42:03.521Z,100.00
2023-03-12T12:44:35.748Z,100.00
2023-03-12T12:47:05.407Z,100.00
2023-03-12T12:49:37.575Z,100.00
2023-03-12T12:52:08.511Z,100.00
2023-03-12T12:54:48.619Z,100.00
2023-03-12T12:57:21.497Z,100.00
2023-03-12T13:00:04.924Z,100.00
2023-03-12T13:02:34.024Z,100.00
2023-03-12T13:05:02.691Z,100.00
2023-03-12T13:07:34.207Z,100.00
2023-03-12T13:10:08.020Z,100.00
2023-03-12T13:12:38.604Z,100.00
2023-03-12T13:15:35.330Z,100.00
2023-03-12T13:18:08.310Z,100.00
2023-03-12T13:20:43.239Z,100.00
2023-03-12T13:23:25.997Z,100.00
2023-03-12T13:25:59.131Z,100.00
2023-03-12T13:28:36.464Z,100.00
2023-03-12T13:31:39.037Z,100.00
2023-03-12T13:34:26.872Z,100.00
2023-03-12T13:36:59.634Z,100.00
2023-03-12T13:39:32.026Z,100.00
2023-03-12T13:42:00.871Z,100.00
2023-03-12T13:44:39.299Z,100.00
2023-03-12T13:47:23.044Z,100.00
2023-03-12T13:49:55.274Z,100.00
2023-03-12T13:52:23.629Z,100.00
2023-03-12T13:54:59.533Z,100.00
2023-03-12T13:57:39.123Z,100.00
2023-03-12T14:00:14.544Z,100.00
2023-03-12T14:02:46.969Z,100.00
2023-03-12T14:05:15.212Z,100.00
2023-03-12T14:08:10.885Z,100.00
2023-03-12T14:10:47.452Z,100.00
2023-03-12T14:13:26.346Z,100.00
2023-03-12T14:15:58.689Z,100.00
2023-03-12T14:18:29.577Z,100.00
2023-03-12T14:20:59.605Z,100.00
2023-03-12T14:23:31.600Z,100.00
2023-03-12T14:26:03.904Z,100.00
2023-03-12T14:28:33.886Z,100.00
2023-03-12T14:31:03.494Z,100.00
2023-03-12T14:33:36.416Z,100.00
2023-03-12T14:36:06.993Z,100.00
2023-03-12T14:38:37.711Z,100.00
2023-03-12T14:41:13.287Z,100.00
2023-03-12T14:43:41.941Z,100.00
2023-03-12T14:46:16.070Z,100.00
2023-03-12T14:48:47.788Z,100.00
2023-03-12T14:51:23.563Z,100.00
2023-03-12T14:53:52.661Z,100.00
2023-03-12T14:56:27.871Z,100.00
2023-03-12T14:58:55.783Z,100.00
2023-03-12T15:01:25.278Z,100.00
2023-03-12T15:03:56.926Z,100.00
2023-03-12T15:06:29.743Z,100.00
2023-03-12T15:08:58.008Z,100.00
2023-03-12T15:11:27.900Z,100.00
2023-03-12T15:13:57.278Z,100.00
2023-03-12T15:16:25.085Z,100.00
2023-03-12T15:18:54.317Z,100.00
2023-03-12T15:21:22.309Z,100.00
2023-03-12T15:23:50.992Z,100.00
2023-03-12T15:26:29.240Z,100.00
2023-03-12T15:28:58.361Z,100.00
2023-03-12T15:31:26.191Z,100.00
2023-03-12T15:34:05.766Z,100.00
2023-03-12T15:36:34.624Z,100.00
2023-03-12T15:39:05.600Z,100.00
2023-03-12T15:41:43.571Z,100.00
2023-03-12T15:44:19.737Z,99.75
2023-03-12T15:46:49.135Z,99.09
2023-03-12T15:49:24.404Z,100.00
2023-03-12T15:52:05.171Z,100.00
2023-03-12T15:54:35.186Z,99.72
2023-03-12T15:57:23.176Z,100.00
2023-03-12T16:00:16.307Z,100.00
2023-03-12T16:02:49.641Z,100.00
2023-03-12T16:05:19.947Z,100.00
2023-03-12T16:07:47.790Z,100.00
2023-03-12T16:10:16.979Z,100.00
2023-03-12T16:12:45.430Z,100.00
2023-03-12T16:15:18.557Z,100.00
2023-03-12T16:17:46.273Z,100.00
2023-03-12T16:20:17.485Z,100.00
2023-03-12T16:22:46.488Z,100.00
2023-03-12T16:25:14.190Z,100.00
2023-03-12T16:27:47.179Z,100.00
2023-03-12T16:30:17.769Z,100.00
2023-03-12T16:32:45.469Z,100.00
2023-03-12T16:35:15.516Z,100.00
2023-03-12T16:37:43.259Z,100.00
2023-03-12T16:40:16.327Z,100.00
2023-03-12T16:42:51.072Z,100.00
2023-03-12T16:45:19.638Z,100.00
2023-03-12T16:48:00.204Z,100.00
2023-03-12T16:50:28.553Z,100.00
2023-03-12T16:52:56.627Z,100.00
2023-03-12T16:55:28.732Z,100.00
2023-03-12T16:57:59.261Z,100.00
2023-03-12T17:00:29.432Z,100.00
2023-03-12T17:02:59.097Z,100.00
2023-03-12T17:05:27.565Z,100.00
2023-03-12T17:07:55.291Z,100.00
2023-03-12T17:10:24.960Z,100.00
2023-03-12T17:12:52.803Z,100.00
2023-03-12T17:15:23.887Z,100.00
2023-03-12T17:17:51.585Z,100.00
2023-03-12T17:20:21.556Z,100.00
2023-03-12T17:22:49.444Z,100.00
2023-03-12T17:25:22.056Z,100.00
2023-03-12T17:27:51.148Z,100.00
2023-03-12T17:30:18.974Z,100.00
2023-03-12T17:32:46.714Z,100.00
2023-03-12T17:35:14.724Z,100.00
2023-03-12T17:37:42.486Z,100.00
2023-03-12T17:40:11.371Z,100.00
2023-03-12T17:42:40.046Z,100.00
2023-03-12T17:45:10.844Z,100.00
2023-03-12T17:47:38.838Z,100.00
2023-03-12T17:50:07.676Z,100.00
2023-03-12T17:52:35.683Z,100.00
2023-03-12T17:55:03.493Z,100.00
2023-03-12T17:57:31.298Z,100.00
2023-03-12T17:59:59.071Z,100.00
2023-03-12T18:02:28.236Z,100.00
2023-03-12T18:04:55.939Z,100.00
2023-03-12T18:07:23.693Z,100.00
2023-03-12T18:09:51.621Z,100.00
2023-03-12T18:12:19.400Z,100.00
2023-03-12T18:14:47.179Z,100.00
2023-03-12T18:17:14.855Z,100.00
2023-03-12T18:19:43.990Z,100.00
2023-03-12T18:22:14.132Z,100.00
2023-03-12T18:24:41.807Z,100.00
2023-03-12T18:27:09.794Z,100.00
2023-03-12T18:29:37.479Z,100.00
2023-03-12T18:32:05.512Z,100.00
2023-03-12T18:34:33.175Z,100.00
2023-03-12T18:37:02.177Z,100.00
2023-03-12T18:39:29.872Z,100.00
2023-03-12T18:41:57.425Z,100.00
2023-03-12T18:44:25.124Z,100.00
2023-03-12T18:46:53.912Z,100.00
2023-03-12T18:49:21.821Z,100.00
2023-03-12T18:51:53.397Z,100.00
2023-03-12T18:54:24.574Z,100.00
2023-03-12T18:56:52.477Z,100.00
2023-03-12T18:59:20.121Z,100.00
2023-03-12T19:01:47.780Z,100.00
2023-03-12T19:04:18.038Z,100.00
2023-03-12T19:06:51.228Z,100.00
2023-03-12T19:09:19.712Z,100.00
2023-03-12T19:11:49.192Z,100.00
2023-03-12T19:14:16.842Z,100.00
2023-03-12T19:16:44.562Z,100.00
2023-03-12T19:19:12.502Z,100.00
2023-03-12T19:21:40.228Z,100.00
2023-03-12T19:24:07.947Z,100.00
2023-03-12T19:26:35.620Z,100.00
2023-03-12T19:29:04.623Z,100.00
2023-03-12T19:31:32.346Z,100.00
2023-03-12T19:34:00.172Z,100.00
2023-03-12T19:36:28.215Z,100.00
2023-03-12T19:38:56.236Z,100.00
2023-03-12T19:41:24.228Z,100.00
2023-03-12T19:44:53.048Z,100.00
2023-03-12T19:47:22.280Z,100.00
2023-03-12T19:49:49.981Z,100.00
2023-03-12T19:52:19.301Z,100.00
2023-03-12T19:54:54.670Z,100.00
2023-03-12T19:57:30.753Z,100.00
2023-03-12T20:00:00.198Z,100.00
2023-03-12T20:02:27.992Z,100.00
2023-03-12T20:04:55.849Z,100.00
2023-03-12T20:07:23.990Z,100.00
2023-03-12T20:09:52.456Z,100.00
2023-03-12T20:12:20.055Z,100.00
2023-03-12T20:14:47.914Z,100.00
2023-03-12T20:17:17.120Z,100.00
2023-03-12T20:19:44.778Z,100.00
2023-03-12T20:22:12.572Z,100.00
2023-03-12T20:24:40.250Z,100.00
2023-03-12T20:27:08.141Z,100.00
2023-03-12T20:29:35.827Z,100.00
2023-03-12T20:32:03.631Z,100.00
2023-03-12T20:34:32.646Z,100.00
2023-03-12T20:37:00.268Z,100.00
2023-03-12T20:39:28.135Z,100.00
2023-03-12T20:41:55.846Z,100.00
2023-03-12T20:44:23.850Z,100.00
2023-03-12T20:46:51.569Z,100.00
2023-03-12T20:49:19.442Z,100.00
2023-03-12T20:51:48.543Z,100.00
2023-03-12T20:54:16.200Z,100.00
2023-03-12T20:56:44.838Z,100.00
2023-03-12T20:59:12.611Z,100.00
2023-03-12T21:01:40.393Z,100.00
2023-03-12T21:04:08.188Z,100.00
2023-03-12T21:06:35.871Z,100.00
2023-03-12T21:09:05.074Z,100.00
2023-03-12T21:11:32.711Z,100.00
2023-03-12T21:14:00.379Z,100.00
2023-03-12T21:16:28.311Z,100.00
2023-03-12T21:18:57.054Z,100.00
2023-03-12T21:21:25.076Z,100.00
2023-03-12T21:23:52.831Z,100.00
2023-03-12T21:26:21.988Z,100.00
2023-03-12T21:28:49.779Z,100.00
2023-03-12T21:31:18.458Z,100.00
2023-03-12T21:33:46.317Z,100.00
2023-03-12T21:36:15.315Z,100.00
2023-03-12T21:38:43.774Z,100.00
2023-03-12T21:41:13.182Z,100.00
2023-03-12T21:43:42.796Z,100.00
2023-03-12T21:46:11.787Z,100.00
2023-03-12T21:48:40.064Z,100.00
2023-03-12T21:51:09.749Z,100.00
2023-03-12T21:53:37.847Z,100.00
2023-03-12T21:56:06.916Z,100.00
2023-03-12T21:58:35.420Z,100.00
2023-03-12T22:01:05.675Z,100.00
2023-03-12T22:03:33.497Z,100.00
2023-03-12T22:06:01.247Z,100.00
2023-03-12T22:08:28.952Z,100.00
2023-03-12T22:10:56.596Z,100.00
2023-03-12T22:13:24.653Z,100.00
2023-03-12T22:15:54.958Z,100.00
2023-03-12T22:18:24.323Z,100.00
2023-03-12T22:20:52.914Z,100.00
2023-03-12T22:23:20.948Z,100.00
2023-03-12T22:25:48.756Z,100.00
2023-03-12T22:28:16.977Z,100.00
2023-03-12T22:30:44.993Z,100.00
2023-03-12T22:33:13.047Z,100.00
2023-03-12T22:35:45.849Z,100.00
2023-03-12T22:38:14.008Z,100.00
2023-03-12T22:40:42.123Z,100.00
2023-03-12T22:43:09.790Z,99.88
2023-03-12T22:45:37.585Z,99.88
2023-03-12T22:48:05.500Z,100.00
2023-03-12T22:50:33.599Z,100.00
2023-03-12T22:53:02.859Z,100.00
2023-03-12T22:55:30.581Z,99.69
2023-03-12T22:57:58.189Z,99.74
2023-03-12T23:00:26.668Z,99.46
2023-03-12T23:02:54.339Z,99.32
2023-03-12T23:05:22.076Z,98.69
2023-03-12T23:07:50.117Z,99.29
2023-03-12T23:10:19.984Z,98.95
2023-03-12T23:12:47.638Z,98.80
2023-03-12T23:15:15.232Z,98.98
2023-03-12T23:17:42.986Z,98.73
2023-03-12T23:20:13.466Z,99.02
2023-03-12T23:22:41.098Z,98.91
2023-03-12T23:25:09.631Z,99.17
2023-03-12T23:27:38.660Z,99.44
2023-03-12T23:30:07.542Z,99.08
2023-03-12T23:32:35.877Z,99.17
2023-03-12T23:35:03.564Z,99.54
2023-03-12T23:37:31.471Z,99.89
2023-03-12T23:39:59.133Z,99.94
2023-03-12T23:42:27.807Z,99.98
2023-03-12T23:44:56.920Z,99.97
2023-03-12T23:47:24.714Z,100.00
2023-03-12T23:49:52.415Z,100.00
2023-03-12T23:52:20.137Z,100.00
2023-03-12T23:54:47.928Z,100.00
2023-03-12T23:57:15.568Z,100.00
2023-03-12T23:59:43.309Z,100.00
